Birch, Minnesota
Current Conditions -  °F | °C
As of 10:14 PM on Wednesday 22 Oct 2014 (Local Time) from KVWU Reporting Station
Drizzle Drizzle  
Wind Chill: 52°   Ceiling: 9000
Heat Index: 52°   Visibility: 10mi
Dew Point: 46°   Wind: 3mph
Humidity: 82%   Direction: 150°SSE
Pressure: 29.9"   Gusts: 16mph
Location:  47.7306°N, 94.3762°W
Report Text: KVWU 230314Z AUTO 15003G14KT 10SM DZ SCT043 SCT055 OVC090 11/08 A2990 RMK AO2
Loading
Personal Weather Stations






























Interactive Weather Map
Tropical Storm Tracking
New forecast layout! Learn more

10-Day Weather Forecast

Advertisements
Track Severe Weather on mobile